sensor_id;sensor_type;location;lat;lon;timestamp;P1;durP1;ratioP1;P2;durP2;ratioP2
25780;SDS011;13626;48.128;11.628;2024-03-06T00:00:15;20.40;;;12.90;;
25780;SDS011;13626;48.128;11.628;2024-03-06T00:02:43;19.25;;;13.15;;
25780;SDS011;13626;48.128;11.628;2024-03-06T00:05:10;20.83;;;13.50;;
25780;SDS011;13626;48.128;11.628;2024-03-06T00:07:39;18.20;;;12.35;;
25780;SDS011;13626;48.128;11.628;2024-03-06T00:10:06;18.25;;;12.32;;
25780;SDS011;13626;48.128;11.628;2024-03-06T00:12:34;20.40;;;12.18;;
25780;SDS011;13626;48.128;11.628;2024-03-06T00:15:01;20.42;;;13.38;;
25780;SDS011;13626;48.128;11.628;2024-03-06T00:17:29;17.60;;;12.40;;
25780;SDS011;13626;48.128;11.628;2024-03-06T00:19:56;18.65;;;12.90;;
25780;SDS011;13626;48.128;11.628;2024-03-06T00:22:24;21.23;;;14.18;;
25780;SDS011;13626;48.128;11.628;2024-03-06T00:24:51;17.17;;;11.63;;
25780;SDS011;13626;48.128;11.628;2024-03-06T00:27:18;17.45;;;12.10;;
25780;SDS011;13626;48.128;11.628;2024-03-06T00:29:46;16.75;;;12.05;;
25780;SDS011;13626;48.128;11.628;2024-03-06T00:32:13;18.80;;;11.95;;
25780;SDS011;13626;48.128;11.628;2024-03-06T00:34:41;17.02;;;11.55;;
25780;SDS011;13626;48.128;11.628;2024-03-06T00:37:08;17.70;;;11.73;;
25780;SDS011;13626;48.128;11.628;2024-03-06T00:39:35;19.33;;;12.10;;
25780;SDS011;13626;48.128;11.628;2024-03-06T00:42:02;16.80;;;11.32;;
25780;SDS011;13626;48.128;11.628;2024-03-06T00:44:31;16.00;;;11.43;;
25780;SDS011;13626;48.128;11.628;2024-03-06T00:46:58;19.25;;;12.40;;
25780;SDS011;13626;48.128;11.628;2024-03-06T00:49:25;18.38;;;11.68;;
25780;SDS011;13626;48.128;11.628;2024-03-06T00:51:52;19.80;;;12.60;;
25780;SDS011;13626;48.128;11.628;2024-03-06T00:54:20;21.60;;;12.30;;
25780;SDS011;13626;48.128;11.628;2024-03-06T00:56:47;20.08;;;12.02;;
25780;SDS011;13626;48.128;11.628;2024-03-06T00:59:14;16.50;;;11.27;;
25780;SDS011;13626;48.128;11.628;2024-03-06T01:01:41;17.38;;;12.10;;
25780;SDS011;13626;48.128;11.628;2024-03-06T01:04:09;16.38;;;11.23;;
25780;SDS011;13626;48.128;11.628;2024-03-06T01:06:36;14.90;;;11.23;;
25780;SDS011;13626;48.128;11.628;2024-03-06T01:09:03;16.90;;;11.38;;
25780;SDS011;13626;48.128;11.628;2024-03-06T01:11:30;16.52;;;11.50;;
25780;SDS011;13626;48.128;11.628;2024-03-06T01:13:58;17.00;;;11.50;;
25780;SDS011;13626;48.128;11.628;2024-03-06T01:16:25;18.20;;;11.52;;
25780;SDS011;13626;48.128;11.628;2024-03-06T01:18:53;18.75;;;12.93;;
25780;SDS011;13626;48.128;11.628;2024-03-06T01:21:20;16.75;;;11.20;;
25780;SDS011;13626;48.128;11.628;2024-03-06T01:23:47;17.20;;;11.27;;
25780;SDS011;13626;48.128;11.628;2024-03-06T01:26:14;18.88;;;11.98;;
25780;SDS011;13626;48.128;11.628;2024-03-06T01:28:43;18.73;;;11.70;;
25780;SDS011;13626;48.128;11.628;2024-03-06T01:31:10;16.92;;;11.27;;
25780;SDS011;13626;48.128;11.628;2024-03-06T01:33:38;19.13;;;12.73;;
25780;SDS011;13626;48.128;11.628;2024-03-06T01:36:05;18.40;;;12.35;;
25780;SDS011;13626;48.128;11.628;2024-03-06T01:38:34;20.50;;;13.25;;
25780;SDS011;13626;48.128;11.628;2024-03-06T01:41:01;19.17;;;12.73;;
25780;SDS011;13626;48.128;11.628;2024-03-06T01:43:36;19.88;;;12.70;;
25780;SDS011;13626;48.128;11.628;2024-03-06T01:46:03;20.77;;;12.93;;
25780;SDS011;13626;48.128;11.628;2024-03-06T01:48:31;20.35;;;13.15;;
25780;SDS011;13626;48.128;11.628;2024-03-06T01:51:00;19.13;;;13.13;;
25780;SDS011;13626;48.128;11.628;2024-03-06T01:53:28;22.08;;;14.40;;
25780;SDS011;13626;48.128;11.628;2024-03-06T01:55:56;22.17;;;13.93;;
25780;SDS011;13626;48.128;11.628;2024-03-06T01:58:24;23.35;;;14.95;;
25780;SDS011;13626;48.128;11.628;2024-03-06T02:00:51;23.50;;;14.07;;
25780;SDS011;13626;48.128;11.628;2024-03-06T02:03:19;25.73;;;14.90;;
25780;SDS011;13626;48.128;11.628;2024-03-06T02:05:49;25.77;;;14.40;;
25780;SDS011;13626;48.128;11.628;2024-03-06T02:08:17;22.85;;;14.45;;
25780;SDS011;13626;48.128;11.628;2024-03-06T02:10:45;23.02;;;13.82;;
25780;SDS011;13626;48.128;11.628;2024-03-06T02:13:13;23.33;;;14.25;;
25780;SDS011;13626;48.128;11.628;2024-03-06T02:15:41;22.15;;;14.23;;
25780;SDS011;13626;48.128;11.628;2024-03-06T02:18:09;24.83;;;13.57;;
25780;SDS011;13626;48.128;11.628;2024-03-06T02:20:40;23.67;;;14.43;;
25780;SDS011;13626;48.128;11.628;2024-03-06T02:23:07;23.15;;;14.35;;
25780;SDS011;13626;48.128;11.628;2024-03-06T02:25:34;21.15;;;13.27;;
25780;SDS011;13626;48.128;11.628;2024-03-06T02:28:02;26.35;;;14.32;;
25780;SDS011;13626;48.128;11.628;2024-03-06T02:30:30;22.23;;;14.20;;
25780;SDS011;13626;48.128;11.628;2024-03-06T02:33:03;25.27;;;13.75;;
25780;SDS011;13626;48.128;11.628;2024-03-06T02:35:30;22.55;;;13.50;;
25780;SDS011;13626;48.128;11.628;2024-03-06T02:37:59;25.85;;;14.32;;
25780;SDS011;13626;48.128;11.628;2024-03-06T02:40:26;24.85;;;14.38;;
25780;SDS011;13626;48.128;11.628;2024-03-06T02:42:53;21.60;;;13.50;;
25780;SDS011;13626;48.128;11.628;2024-03-06T02:45:21;23.95;;;13.38;;
25780;SDS011;13626;48.128;11.628;2024-03-06T02:47:48;25.85;;;14.55;;
25780;SDS011;13626;48.128;11.628;2024-03-06T02:50:15;24.17;;;13.90;;
25780;SDS011;13626;48.128;11.628;2024-03-06T02:52:43;24.52;;;13.45;;
25780;SDS011;13626;48.128;11.628;2024-03-06T02:55:10;11.63;;;7.13;;
25780;SDS011;13626;48.128;11.628;2024-03-06T02:57:38;4.35;;;3.35;;
25780;SDS011;13626;48.128;11.628;2024-03-06T03:00:06;4.10;;;2.83;;
25780;SDS011;13626;48.128;11.628;2024-03-06T03:02:39;4.55;;;3.28;;
25780;SDS011;13626;48.128;11.628;2024-03-06T03:05:06;3.60;;;2.90;;
25780;SDS011;13626;48.128;11.628;2024-03-06T03:07:34;4.35;;;3.13;;
25780;SDS011;13626;48.128;11.628;2024-03-06T03:10:01;4.28;;;2.80;;
25780;SDS011;13626;48.128;11.628;2024-03-06T03:12:30;4.45;;;2.88;;
25780;SDS011;13626;48.128;11.628;2024-03-06T03:14:57;4.78;;;3.45;;
25780;SDS011;13626;48.128;11.628;2024-03-06T03:17:25;4.05;;;2.38;;
25780;SDS011;13626;48.128;11.628;2024-03-06T03:19:52;3.75;;;2.40;;
25780;SDS011;13626;48.128;11.628;2024-03-06T03:22:19;2.45;;;2.10;;
25780;SDS011;13626;48.128;11.628;2024-03-06T03:24:46;2.35;;;2.08;;
25780;SDS011;13626;48.128;11.628;2024-03-06T03:27:14;2.42;;;2.10;;
25780;SDS011;13626;48.128;11.628;2024-03-06T03:29:41;2.05;;;1.70;;
25780;SDS011;13626;48.128;11.628;2024-03-06T03:32:08;3.97;;;1.85;;
25780;SDS011;13626;48.128;11.628;2024-03-06T03:34:35;2.22;;;2.00;;
25780;SDS011;13626;48.128;11.628;2024-03-06T03:37:02;2.53;;;1.90;;
25780;SDS011;13626;48.128;11.628;2024-03-06T03:39:30;2.55;;;1.95;;
25780;SDS011;13626;48.128;11.628;2024-03-06T03:41:57;2.40;;;2.08;;
25780;SDS011;13626;48.128;11.628;2024-03-06T03:44:24;2.55;;;2.03;;
25780;SDS011;13626;48.128;11.628;2024-03-06T03:46:51;3.17;;;1.60;;
25780;SDS011;13626;48.128;11.628;2024-03-06T03:49:19;2.60;;;1.98;;
25780;SDS011;13626;48.128;11.628;2024-03-06T03:51:46;2.05;;;1.80;;
25780;SDS011;13626;48.128;11.628;2024-03-06T03:54:13;2.05;;;1.83;;
25780;SDS011;13626;48.128;11.628;2024-03-06T03:56:41;2.33;;;2.10;;
25780;SDS011;13626;48.128;11.628;2024-03-06T03:59:08;3.35;;;1.98;;
25780;SDS011;13626;48.128;11.628;2024-03-06T04:01:35;1.85;;;1.75;;
25780;SDS011;13626;48.128;11.628;2024-03-06T04:04:02;3.22;;;2.22;;
25780;SDS011;13626;48.128;11.628;2024-03-06T04:06:30;3.10;;;2.53;;
25780;SDS011;13626;48.128;11.628;2024-03-06T04:08:58;2.83;;;2.17;;
25780;SDS011;13626;48.128;11.628;2024-03-06T04:11:25;2.83;;;2.03;;
25780;SDS011;13626;48.128;11.628;2024-03-06T04:13:53;2.92;;;2.25;;
25780;SDS011;13626;48.128;11.628;2024-03-06T04:16:20;2.47;;;1.92;;
25780;SDS011;13626;48.128;11.628;2024-03-06T04:18:47;2.05;;;1.85;;
25780;SDS011;13626;48.128;11.628;2024-03-06T04:21:14;1.92;;;1.67;;
25780;SDS011;13626;48.128;11.628;2024-03-06T04:23:43;2.65;;;1.80;;
25780;SDS011;13626;48.128;11.628;2024-03-06T04:26:10;3.10;;;1.92;;
25780;SDS011;13626;48.128;11.628;2024-03-06T04:28:38;2.03;;;1.83;;
25780;SDS011;13626;48.128;11.628;2024-03-06T04:31:05;2.17;;;1.80;;
25780;SDS011;13626;48.128;11.628;2024-03-06T04:33:33;2.30;;;2.00;;
25780;SDS011;13626;48.128;11.628;2024-03-06T04:36:03;2.10;;;1.90;;
25780;SDS011;13626;48.128;11.628;2024-03-06T04:38:34;1.90;;;1.60;;
25780;SDS011;13626;48.128;11.628;2024-03-06T04:41:02;1.95;;;1.75;;
25780;SDS011;13626;48.128;11.628;2024-03-06T04:43:29;1.92;;;1.80;;
25780;SDS011;13626;48.128;11.628;2024-03-06T04:45:56;3.58;;;1.95;;
25780;SDS011;13626;48.128;11.628;2024-03-06T04:48:23;2.33;;;1.85;;
25780;SDS011;13626;48.128;11.628;2024-03-06T04:50:51;3.35;;;2.22;;
25780;SDS011;13626;48.128;11.628;2024-03-06T04:53:19;2.28;;;1.95;;
25780;SDS011;13626;48.128;11.628;2024-03-06T04:55:46;1.85;;;1.70;;
25780;SDS011;13626;48.128;11.628;2024-03-06T04:58:14;2.42;;;2.05;;
25780;SDS011;13626;48.128;11.628;2024-03-06T05:00:41;3.05;;;2.00;;
25780;SDS011;13626;48.128;11.628;2024-03-06T05:03:08;1.75;;;1.63;;
25780;SDS011;13626;48.128;11.628;2024-03-06T05:05:53;2.85;;;2.13;;
25780;SDS011;13626;48.128;11.628;2024-03-06T05:08:38;2.70;;;1.90;;
25780;SDS011;13626;48.128;11.628;2024-03-06T05:11:22;2.30;;;2.10;;
25780;SDS011;13626;48.128;11.628;2024-03-06T05:14:07;2.40;;;2.05;;
25780;SDS011;13626;48.128;11.628;2024-03-06T05:16:51;3.42;;;1.90;;
25780;SDS011;13626;48.128;11.628;2024-03-06T05:19:36;1.83;;;1.70;;
25780;SDS011;13626;48.128;11.628;2024-03-06T05:22:21;2.58;;;1.90;;
25780;SDS011;13626;48.128;11.628;2024-03-06T05:25:06;2.22;;;1.90;;
25780;SDS011;13626;48.128;11.628;2024-03-06T05:27:51;1.60;;;1.50;;
25780;SDS011;13626;48.128;11.628;2024-03-06T05:30:36;2.05;;;1.48;;
25780;SDS011;13626;48.128;11.628;2024-03-06T05:33:21;2.00;;;1.88;;
25780;SDS011;13626;48.128;11.628;2024-03-06T05:36:05;2.92;;;1.98;;
25780;SDS011;13626;48.128;11.628;2024-03-06T05:38:50;2.92;;;1.90;;
25780;SDS011;13626;48.128;11.628;2024-03-06T05:41:34;2.57;;;2.27;;
25780;SDS011;13626;48.128;11.628;2024-03-06T05:44:19;2.38;;;1.83;;
25780;SDS011;13626;48.128;11.628;2024-03-06T05:47:04;3.13;;;2.20;;
25780;SDS011;13626;48.128;11.628;2024-03-06T05:49:50;2.50;;;2.00;;
25780;SDS011;13626;48.128;11.628;2024-03-06T05:52:35;2.40;;;1.80;;
25780;SDS011;13626;48.128;11.628;2024-03-06T05:55:19;2.10;;;1.90;;
25780;SDS011;13626;48.128;11.628;2024-03-06T05:58:06;3.35;;;2.08;;
25780;SDS011;13626;48.128;11.628;2024-03-06T06:00:34;2.53;;;1.70;;
25780;SDS011;13626;48.128;11.628;2024-03-06T06:03:01;2.15;;;1.92;;
25780;SDS011;13626;48.128;11.628;2024-03-06T06:05:29;2.17;;;1.92;;
25780;SDS011;13626;48.128;11.628;2024-03-06T06:07:56;2.50;;;2.20;;
25780;SDS011;13626;48.128;11.628;2024-03-06T06:10:23;2.50;;;2.05;;
25780;SDS011;13626;48.128;11.628;2024-03-06T06:12:51;2.42;;;2.00;;
25780;SDS011;13626;48.128;11.628;2024-03-06T06:15:19;2.40;;;2.20;;
25780;SDS011;13626;48.128;11.628;2024-03-06T06:17:46;2.30;;;1.92;;
25780;SDS011;13626;48.128;11.628;2024-03-06T06:20:14;1.92;;;1.63;;
25780;SDS011;13626;48.128;11.628;2024-03-06T06:22:43;3.10;;;2.10;;
25780;SDS011;13626;48.128;11.628;2024-03-06T06:25:11;4.07;;;2.45;;
25780;SDS011;13626;48.128;11.628;2024-03-06T06:27:39;2.28;;;2.08;;
25780;SDS011;13626;48.128;11.628;2024-03-06T06:30:06;2.30;;;1.90;;
25780;SDS011;13626;48.128;11.628;2024-03-06T06:32:40;3.25;;;2.25;;
25780;SDS011;13626;48.128;11.628;2024-03-06T06:35:09;2.28;;;2.08;;
25780;SDS011;13626;48.128;11.628;2024-03-06T06:37:38;3.15;;;2.35;;
25780;SDS011;13626;48.128;11.628;2024-03-06T06:40:06;1.92;;;1.73;;
25780;SDS011;13626;48.128;11.628;2024-03-06T06:42:34;2.40;;;2.20;;
25780;SDS011;13626;48.128;11.628;2024-03-06T06:45:01;3.65;;;2.30;;
25780;SDS011;13626;48.128;11.628;2024-03-06T06:47:29;3.80;;;2.50;;
25780;SDS011;13626;48.128;11.628;2024-03-06T06:49:56;3.17;;;2.33;;
25780;SDS011;13626;48.128;11.628;2024-03-06T06:52:23;4.82;;;2.40;;
25780;SDS011;13626;48.128;11.628;2024-03-06T06:54:54;2.60;;;2.38;;
25780;SDS011;13626;48.128;11.628;2024-03-06T06:57:22;3.38;;;2.53;;
25780;SDS011;13626;48.128;11.628;2024-03-06T06:59:49;3.63;;;2.80;;
25780;SDS011;13626;48.128;11.628;2024-03-06T07:02:16;2.42;;;2.22;;
25780;SDS011;13626;48.128;11.628;2024-03-06T07:04:43;3.40;;;2.47;;
25780;SDS011;13626;48.128;11.628;2024-03-06T07:07:11;3.13;;;2.15;;
25780;SDS011;13626;48.128;11.628;2024-03-06T07:09:38;4.28;;;1.90;;
25780;SDS011;13626;48.128;11.628;2024-03-06T07:12:05;2.97;;;2.08;;
25780;SDS011;13626;48.128;11.628;2024-03-06T07:14:34;2.63;;;1.98;;
25780;SDS011;13626;48.128;11.628;2024-03-06T07:17:01;2.63;;;2.10;;
25780;SDS011;13626;48.128;11.628;2024-03-06T07:19:29;2.22;;;2.00;;
25780;SDS011;13626;48.128;11.628;2024-03-06T07:21:56;2.38;;;2.13;;
25780;SDS011;13626;48.128;11.628;2024-03-06T07:24:24;2.47;;;2.03;;
25780;SDS011;13626;48.128;11.628;2024-03-06T07:26:51;2.42;;;2.20;;
25780;SDS011;13626;48.128;11.628;2024-03-06T07:29:18;2.58;;;2.00;;
25780;SDS011;13626;48.128;11.628;2024-03-06T07:31:45;3.85;;;2.25;;
25780;SDS011;13626;48.128;11.628;2024-03-06T07:34:13;2.10;;;1.90;;
25780;SDS011;13626;48.128;11.628;2024-03-06T07:36:41;3.67;;;2.40;;
25780;SDS011;13626;48.128;11.628;2024-03-06T07:39:08;2.20;;;2.00;;
25780;SDS011;13626;48.128;11.628;2024-03-06T07:41:35;2.72;;;2.28;;
25780;SDS011;13626;48.128;11.628;2024-03-06T07:44:03;2.58;;;2.05;;
25780;SDS011;13626;48.128;11.628;2024-03-06T07:46:30;2.45;;;2.08;;
25780;SDS011;13626;48.128;11.628;2024-03-06T07:48:57;2.88;;;2.40;;
25780;SDS011;13626;48.128;11.628;2024-03-06T07:51:25;2.78;;;2.25;;
25780;SDS011;13626;48.128;11.628;2024-03-06T07:53:52;4.55;;;2.13;;
25780;SDS011;13626;48.128;11.628;2024-03-06T07:56:19;2.65;;;2.10;;
25780;SDS011;13626;48.128;11.628;2024-03-06T07:58:46;3.50;;;2.33;;
25780;SDS011;13626;48.128;11.628;2024-03-06T08:01:14;4.20;;;2.10;;
25780;SDS011;13626;48.128;11.628;2024-03-06T08:03:41;2.97;;;2.10;;
25780;SDS011;13626;48.128;11.628;2024-03-06T08:06:09;2.78;;;2.35;;
25780;SDS011;13626;48.128;11.628;2024-03-06T08:08:39;2.40;;;2.20;;
25780;SDS011;13626;48.128;11.628;2024-03-06T08:11:07;3.90;;;3.00;;
25780;SDS011;13626;48.128;11.628;2024-03-06T08:13:37;2.72;;;2.20;;
25780;SDS011;13626;48.128;11.628;2024-03-06T08:16:08;3.72;;;2.20;;
25780;SDS011;13626;48.128;11.628;2024-03-06T08:18:36;3.53;;;2.28;;
25780;SDS011;13626;48.128;11.628;2024-03-06T08:21:03;2.00;;;1.80;;
25780;SDS011;13626;48.128;11.628;2024-03-06T08:23:32;2.65;;;2.25;;
25780;SDS011;13626;48.128;11.628;2024-03-06T08:26:00;3.08;;;2.35;;
25780;SDS011;13626;48.128;11.628;2024-03-06T08:28:27;4.28;;;2.17;;
25780;SDS011;13626;48.128;11.628;2024-03-06T08:30:54;4.88;;;2.47;;
25780;SDS011;13626;48.128;11.628;2024-03-06T08:33:21;2.50;;;2.20;;
25780;SDS011;13626;48.128;11.628;2024-03-06T08:35:49;2.75;;;2.00;;
25780;SDS011;13626;48.128;11.628;2024-03-06T08:38:17;11.75;;;7.15;;
25780;SDS011;13626;48.128;11.628;2024-03-06T08:40:44;2.38;;;2.03;;
25780;SDS011;13626;48.128;11.628;2024-03-06T08:43:12;2.25;;;1.98;;
25780;SDS011;13626;48.128;11.628;2024-03-06T08:45:42;1.98;;;1.77;;
25780;SDS011;13626;48.128;11.628;2024-03-06T08:48:09;2.85;;;2.00;;
25780;SDS011;13626;48.128;11.628;2024-03-06T08:50:38;1.80;;;1.70;;
25780;SDS011;13626;48.128;11.628;2024-03-06T08:53:05;2.42;;;2.22;;
25780;SDS011;13626;48.128;11.628;2024-03-06T08:55:33;2.13;;;1.92;;
25780;SDS011;13626;48.128;11.628;2024-03-06T08:58:00;2.33;;;1.85;;
25780;SDS011;13626;48.128;11.628;2024-03-06T09:00:28;2.40;;;2.20;;
25780;SDS011;13626;48.128;11.628;2024-03-06T09:02:55;2.15;;;1.95;;
25780;SDS011;13626;48.128;11.628;2024-03-06T09:05:22;2.10;;;1.90;;
25780;SDS011;13626;48.128;11.628;2024-03-06T09:07:50;2.40;;;2.17;;
25780;SDS011;13626;48.128;11.628;2024-03-06T09:10:17;3.78;;;1.80;;
25780;SDS011;13626;48.128;11.628;2024-03-06T09:12:48;2.47;;;2.00;;
25780;SDS011;13626;48.128;11.628;2024-03-06T09:15:15;2.25;;;1.75;;
25780;SDS011;13626;48.128;11.628;2024-03-06T09:17:43;2.53;;;1.90;;
25780;SDS011;13626;48.128;11.628;2024-03-06T09:20:11;3.03;;;1.80;;
25780;SDS011;13626;48.128;11.628;2024-03-06T09:22:40;2.45;;;1.90;;
25780;SDS011;13626;48.128;11.628;2024-03-06T09:25:09;2.10;;;1.90;;
25780;SDS011;13626;48.128;11.628;2024-03-06T09:27:36;3.92;;;2.03;;
25780;SDS011;13626;48.128;11.628;2024-03-06T09:30:04;4.97;;;2.10;;
25780;SDS011;13626;48.128;11.628;2024-03-06T09:32:32;2.80;;;2.17;;
25780;SDS011;13626;48.128;11.628;2024-03-06T09:34:59;2.83;;;2.00;;
25780;SDS011;13626;48.128;11.628;2024-03-06T09:37:27;2.58;;;1.90;;
25780;SDS011;13626;48.128;11.628;2024-03-06T09:39:55;4.28;;;2.15;;
25780;SDS011;13626;48.128;11.628;2024-03-06T09:42:23;2.85;;;2.05;;
25780;SDS011;13626;48.128;11.628;2024-03-06T09:44:51;2.20;;;2.00;;
25780;SDS011;13626;48.128;11.628;2024-03-06T09:47:19;2.88;;;1.83;;
25780;SDS011;13626;48.128;11.628;2024-03-06T09:49:51;3.50;;;2.00;;
25780;SDS011;13626;48.128;11.628;2024-03-06T09:52:22;2.38;;;1.83;;
25780;SDS011;13626;48.128;11.628;2024-03-06T09:54:56;2.13;;;1.80;;
25780;SDS011;13626;48.128;11.628;2024-03-06T09:57:24;2.60;;;1.90;;
25780;SDS011;13626;48.128;11.628;2024-03-06T09:59:51;2.28;;;2.08;;
25780;SDS011;13626;48.128;11.628;2024-03-06T10:02:41;3.28;;;2.17;;
25780;SDS011;13626;48.128;11.628;2024-03-06T10:05:20;2.13;;;1.90;;
25780;SDS011;13626;48.128;11.628;2024-03-06T10:10:15;2.15;;;1.80;;
25780;SDS011;13626;48.128;11.628;2024-03-06T10:12:42;2.42;;;1.80;;
25780;SDS011;13626;48.128;11.628;2024-03-06T10:15:10;2.15;;;1.80;;
25780;SDS011;13626;48.128;11.628;2024-03-06T10:17:38;2.88;;;2.42;;
25780;SDS011;13626;48.128;11.628;2024-03-06T10:20:26;2.55;;;1.80;;
25780;SDS011;13626;48.128;11.628;2024-03-06T10:22:54;2.25;;;1.80;;
25780;SDS011;13626;48.128;11.628;2024-03-06T10:25:24;2.33;;;2.03;;
25780;SDS011;13626;48.128;11.628;2024-03-06T10:28:06;2.03;;;1.60;;
25780;SDS011;13626;48.128;11.628;2024-03-06T10:30:34;2.17;;;1.80;;
25780;SDS011;13626;48.128;11.628;2024-03-06T10:33:02;2.33;;;2.13;;
25780;SDS011;13626;48.128;11.628;2024-03-06T10:35:30;3.13;;;2.20;;
25780;SDS011;13626;48.128;11.628;2024-03-06T10:38:00;2.13;;;1.90;;
25780;SDS011;13626;48.128;11.628;2024-03-06T10:40:31;1.92;;;1.83;;
25780;SDS011;13626;48.128;11.628;2024-03-06T10:42:59;2.45;;;1.80;;
25780;SDS011;13626;48.128;11.628;2024-03-06T10:45:32;2.17;;;1.98;;
25780;SDS011;13626;48.128;11.628;2024-03-06T10:48:01;2.63;;;1.83;;
25780;SDS011;13626;48.128;11.628;2024-03-06T10:50:30;2.50;;;2.28;;
25780;SDS011;13626;48.128;11.628;2024-03-06T10:52:57;5.03;;;2.35;;
25780;SDS011;13626;48.128;11.628;2024-03-06T10:55:25;2.58;;;1.92;;
25780;SDS011;13626;48.128;11.628;2024-03-06T10:57:55;2.60;;;2.15;;
25780;SDS011;13626;48.128;11.628;2024-03-06T11:00:23;3.75;;;2.13;;
25780;SDS011;13626;48.128;11.628;2024-03-06T11:02:53;3.00;;;2.20;;
25780;SDS011;13626;48.128;11.628;2024-03-06T11:05:21;3.00;;;2.00;;
25780;SDS011;13626;48.128;11.628;2024-03-06T11:07:48;3.10;;;2.10;;
25780;SDS011;13626;48.128;11.628;2024-03-06T11:10:29;4.72;;;2.58;;
25780;SDS011;13626;48.128;11.628;2024-03-06T11:12:56;3.47;;;2.45;;
25780;SDS011;13626;48.128;11.628;2024-03-06T11:15:25;3.47;;;2.88;;
25780;SDS011;13626;48.128;11.628;2024-03-06T11:17:52;3.28;;;2.33;;
25780;SDS011;13626;48.128;11.628;2024-03-06T11:20:21;3.75;;;2.63;;
25780;SDS011;13626;48.128;11.628;2024-03-06T11:28:12;4.63;;;3.40;;
25780;SDS011;13626;48.128;11.628;2024-03-06T11:30:46;5.70;;;3.25;;
25780;SDS011;13626;48.128;11.628;2024-03-06T11:33:16;5.30;;;3.60;;
25780;SDS011;13626;48.128;11.628;2024-03-06T11:38:30;4.75;;;3.13;;
25780;SDS011;13626;48.128;11.628;2024-03-06T11:40:58;4.53;;;3.22;;
25780;SDS011;13626;48.128;11.628;2024-03-06T11:43:25;5.18;;;3.58;;
25780;SDS011;13626;48.128;11.628;2024-03-06T11:45:53;4.30;;;3.40;;
25780;SDS011;13626;48.128;11.628;2024-03-06T11:48:20;6.88;;;4.03;;
25780;SDS011;13626;48.128;11.628;2024-03-06T11:50:48;4.43;;;3.28;;
25780;SDS011;13626;48.128;11.628;2024-03-06T11:53:17;4.18;;;3.08;;
25780;SDS011;13626;48.128;11.628;2024-03-06T11:55:47;5.57;;;3.63;;
25780;SDS011;13626;48.128;11.628;2024-03-06T11:58:14;4.38;;;2.95;;
25780;SDS011;13626;48.128;11.628;2024-03-06T12:00:49;4.60;;;3.20;;
25780;SDS011;13626;48.128;11.628;2024-03-06T12:03:17;3.42;;;2.90;;
25780;SDS011;13626;48.128;11.628;2024-03-06T12:05:44;3.63;;;2.92;;
25780;SDS011;13626;48.128;11.628;2024-03-06T12:08:12;3.90;;;2.90;;
25780;SDS011;13626;48.128;11.628;2024-03-06T12:10:39;4.25;;;3.38;;
25780;SDS011;13626;48.128;11.628;2024-03-06T12:13:07;5.57;;;3.15;;
25780;SDS011;13626;48.128;11.628;2024-03-06T12:15:35;4.70;;;3.20;;
25780;SDS011;13626;48.128;11.628;2024-03-06T12:18:02;3.65;;;2.83;;
25780;SDS011;13626;48.128;11.628;2024-03-06T12:20:32;4.05;;;3.15;;
25780;SDS011;13626;48.128;11.628;2024-03-06T12:22:59;4.63;;;3.25;;
25780;SDS011;13626;48.128;11.628;2024-03-06T12:25:26;5.30;;;3.50;;
25780;SDS011;13626;48.128;11.628;2024-03-06T12:27:54;4.55;;;3.20;;
25780;SDS011;13626;48.128;11.628;2024-03-06T12:30:22;5.65;;;3.30;;
25780;SDS011;13626;48.128;11.628;2024-03-06T12:32:56;5.63;;;4.07;;
25780;SDS011;13626;48.128;11.628;2024-03-06T12:35:24;5.50;;;3.60;;
25780;SDS011;13626;48.128;11.628;2024-03-06T12:37:52;6.15;;;3.47;;
25780;SDS011;13626;48.128;11.628;2024-03-06T12:40:19;4.55;;;3.30;;
25780;SDS011;13626;48.128;11.628;2024-03-06T12:42:47;6.15;;;3.83;;
25780;SDS011;13626;48.128;11.628;2024-03-06T12:45:16;6.15;;;3.53;;
25780;SDS011;13626;48.128;11.628;2024-03-06T12:47:44;5.63;;;3.05;;
25780;SDS011;13626;48.128;11.628;2024-03-06T12:50:20;4.40;;;3.28;;
25780;SDS011;13626;48.128;11.628;2024-03-06T12:52:47;4.72;;;3.38;;
25780;SDS011;13626;48.128;11.628;2024-03-06T12:55:14;4.90;;;3.58;;
25780;SDS011;13626;48.128;11.628;2024-03-06T12:57:42;5.32;;;3.17;;
25780;SDS011;13626;48.128;11.628;2024-03-06T13:00:10;4.70;;;3.20;;
25780;SDS011;13626;48.128;11.628;2024-03-06T13:02:42;3.83;;;2.80;;
25780;SDS011;13626;48.128;11.628;2024-03-06T13:05:11;3.85;;;2.67;;
25780;SDS011;13626;48.128;11.628;2024-03-06T13:07:39;4.97;;;3.33;;
25780;SDS011;13626;48.128;11.628;2024-03-06T13:10:08;4.07;;;2.92;;
25780;SDS011;13626;48.128;11.628;2024-03-06T13:12:37;3.03;;;2.65;;
25780;SDS011;13626;48.128;11.628;2024-03-06T13:15:04;3.33;;;2.50;;
25780;SDS011;13626;48.128;11.628;2024-03-06T13:17:33;3.85;;;2.70;;
25780;SDS011;13626;48.128;11.628;2024-03-06T13:20:01;3.75;;;2.60;;
25780;SDS011;13626;48.128;11.628;2024-03-06T13:22:28;3.53;;;2.67;;
25780;SDS011;13626;48.128;11.628;2024-03-06T13:24:56;3.78;;;2.45;;
25780;SDS011;13626;48.128;11.628;2024-03-06T13:27:23;5.40;;;2.65;;
25780;SDS011;13626;48.128;11.628;2024-03-06T13:29:50;3.83;;;2.78;;
25780;SDS011;13626;48.128;11.628;2024-03-06T13:32:18;3.45;;;2.70;;
25780;SDS011;13626;48.128;11.628;2024-03-06T13:34:45;4.57;;;2.70;;
25780;SDS011;13626;48.128;11.628;2024-03-06T13:37:13;5.50;;;3.28;;
25780;SDS011;13626;48.128;11.628;2024-03-06T13:39:40;3.70;;;2.60;;
25780;SDS011;13626;48.128;11.628;2024-03-06T13:42:07;3.20;;;2.50;;
25780;SDS011;13626;48.128;11.628;2024-03-06T13:44:36;3.80;;;2.60;;
25780;SDS011;13626;48.128;11.628;2024-03-06T13:47:04;4.25;;;3.03;;
25780;SDS011;13626;48.128;11.628;2024-03-06T13:49:35;3.22;;;2.83;;
25780;SDS011;13626;48.128;11.628;2024-03-06T13:52:03;3.88;;;2.67;;
25780;SDS011;13626;48.128;11.628;2024-03-06T13:54:37;3.33;;;2.67;;
25780;SDS011;13626;48.128;11.628;2024-03-06T13:57:08;3.80;;;2.95;;
25780;SDS011;13626;48.128;11.628;2024-03-06T13:59:38;3.28;;;2.47;;
25780;SDS011;13626;48.128;11.628;2024-03-06T14:02:06;2.95;;;2.33;;
25780;SDS011;13626;48.128;11.628;2024-03-06T14:04:34;3.08;;;2.72;;
25780;SDS011;13626;48.128;11.628;2024-03-06T14:07:01;3.30;;;2.72;;
25780;SDS011;13626;48.128;11.628;2024-03-06T14:09:28;4.55;;;2.30;;
25780;SDS011;13626;48.128;11.628;2024-03-06T14:11:57;2.97;;;2.47;;
25780;SDS011;13626;48.128;11.628;2024-03-06T14:14:24;4.38;;;2.40;;
25780;SDS011;13626;48.128;11.628;2024-03-06T14:16:52;2.88;;;2.30;;
25780;SDS011;13626;48.128;11.628;2024-03-06T14:19:19;3.60;;;2.67;;
25780;SDS011;13626;48.128;11.628;2024-03-06T14:21:48;3.45;;;2.55;;
25780;SDS011;13626;48.128;11.628;2024-03-06T14:24:15;3.55;;;2.63;;
25780;SDS011;13626;48.128;11.628;2024-03-06T14:26:51;7.22;;;3.30;;
25780;SDS011;13626;48.128;11.628;2024-03-06T14:29:33;5.70;;;3.17;;
25780;SDS011;13626;48.128;11.628;2024-03-06T14:32:00;4.00;;;3.10;;
25780;SDS011;13626;48.128;11.628;2024-03-06T14:34:27;5.18;;;3.50;;
25780;SDS011;13626;48.128;11.628;2024-03-06T14:36:54;2.78;;;2.47;;
25780;SDS011;13626;48.128;11.628;2024-03-06T14:39:22;3.20;;;2.50;;
25780;SDS011;13626;48.128;11.628;2024-03-06T14:41:50;4.05;;;2.70;;
25780;SDS011;13626;48.128;11.628;2024-03-06T14:44:17;4.05;;;2.50;;
25780;SDS011;13626;48.128;11.628;2024-03-06T14:46:46;4.65;;;2.80;;
25780;SDS011;13626;48.128;11.628;2024-03-06T14:49:13;4.35;;;3.20;;